createdAt,value
2022-12-08T00:00:00.547Z,1.2
2022-12-08T00:05:00.918Z,1.2
2022-12-08T00:10:00.466Z,1.1
2022-12-08T00:15:00.904Z,1.2
2022-12-08T00:20:00.441Z,1.2
2022-12-08T00:25:00.732Z,1.2
2022-12-08T00:30:00.464Z,1.2
2022-12-08T00:35:00.659Z,1.2
2022-12-08T00:40:00.544Z,1.3
2022-12-08T00:45:00.406Z,1.3
2022-12-08T00:50:00.590Z,1.3
2022-12-08T00:55:00.417Z,1.3
2022-12-08T01:00:00.603Z,1.2
2022-12-08T01:05:00.433Z,1.2
2022-12-08T01:10:00.449Z,1.2
2022-12-08T01:15:02.480Z,1.2
2022-12-08T01:20:00.388Z,1.2
2022-12-08T01:25:00.252Z,1.2
2022-12-08T01:30:00.112Z,1.1
2022-12-08T01:35:00.122Z,1.2
2022-12-08T01:40:00.121Z,1.1
2022-12-08T01:45:00.120Z,1.1
2022-12-08T01:50:00.116Z,1.1
2022-12-08T01:55:00.131Z,0.9
2022-12-08T02:00:00.141Z,0.8
2022-12-08T02:05:00.124Z,0.8
2022-12-08T02:10:00.184Z,0.8
2022-12-08T02:15:04.846Z,0.7
2022-12-08T02:20:00.145Z,0.6
2022-12-08T02:25:00.145Z,0.5
2022-12-08T02:30:00.191Z,0.4
2022-12-08T02:35:00.248Z,0.3
2022-12-08T02:40:00.170Z,0.3
2022-12-08T02:45:00.185Z,0.3
2022-12-08T02:50:00.245Z,0.3
2022-12-08T02:55:00.273Z,0.2
2022-12-08T03:00:00.283Z,0.2
2022-12-08T03:05:00.804Z,0.2
2022-12-08T03:10:00.946Z,0.2
2022-12-08T03:15:00.731Z,0.2
2022-12-08T03:20:00.910Z,0.2
2022-12-08T03:25:00.721Z,0.2
2022-12-08T03:30:00.773Z,0.2
2022-12-08T03:35:00.716Z,0.2
2022-12-08T03:40:00.731Z,0.3
2022-12-08T03:45:00.754Z,0.3
2022-12-08T03:50:00.838Z,0.3
2022-12-08T03:55:00.764Z,0.4
2022-12-08T04:00:00.853Z,0.4
2022-12-08T04:05:00.775Z,0.4
2022-12-08T04:10:00.752Z,0.4
2022-12-08T04:15:00.760Z,0.4
2022-12-08T04:20:00.914Z,0.4
2022-12-08T04:25:00.775Z,0.4
2022-12-08T04:30:00.776Z,0.4
2022-12-08T04:35:00.773Z,0.4
2022-12-08T04:40:00.946Z,0.5
2022-12-08T04:45:00.782Z,0.5
2022-12-08T04:50:00.951Z,0.4
2022-12-08T04:55:00.790Z,0.4
2022-12-08T05:00:00.800Z,0.4
2022-12-08T05:05:00.806Z,0.4
2022-12-08T05:10:01.038Z,0.3
2022-12-08T05:15:00.809Z,0.4
2022-12-08T05:20:01.060Z,0.4
2022-12-08T05:25:00.835Z,0.4
2022-12-08T05:30:01.017Z,0.4
2022-12-08T05:35:00.834Z,0.4
2022-12-08T05:40:00.841Z,0.4
2022-12-08T05:45:00.864Z,0.4
2022-12-08T05:50:00.931Z,0.4
2022-12-08T05:55:01.034Z,0.4
2022-12-08T06:00:01.392Z,0.4
2022-12-08T06:05:01.170Z,0.3
2022-12-08T06:10:01.293Z,0.2
2022-12-08T06:15:01.180Z,0.1
2022-12-08T06:20:01.418Z,0
2022-12-08T06:25:03.277Z,-0.2
2022-12-08T06:30:01.326Z,-0.3
2022-12-08T06:35:01.214Z,-0.5
2022-12-08T06:40:02.515Z,-0.6
2022-12-08T06:45:01.227Z,-0.7
2022-12-08T06:50:01.492Z,-0.8
2022-12-08T06:55:01.232Z,-0.8
2022-12-08T07:00:01.464Z,-0.8
2022-12-08T07:05:01.234Z,-0.8
2022-12-08T07:10:01.260Z,-0.8
2022-12-08T07:15:01.248Z,-0.8
2022-12-08T07:20:01.739Z,-0.8
2022-12-08T07:25:00.469Z,-0.8
2022-12-08T07:30:00.610Z,-0.7
2022-12-08T07:35:00.490Z,-0.6
2022-12-08T07:40:00.499Z,-0.5
2022-12-08T07:45:00.486Z,-0.4
2022-12-08T07:50:00.513Z,-0.2
2022-12-08T07:55:00.495Z,-0.1
2022-12-08T08:00:00.539Z,-0.1
2022-12-08T08:05:00.641Z,0
2022-12-08T08:10:00.563Z,0.1
2022-12-08T08:15:00.568Z,0.1
2022-12-08T08:20:00.570Z,0.2
2022-12-08T08:25:00.520Z,0.3
2022-12-08T08:30:00.547Z,0.5
2022-12-08T08:35:00.522Z,0.7
2022-12-08T08:40:00.531Z,0.8
2022-12-08T08:45:00.574Z,0.9
2022-12-08T08:50:00.593Z,1
2022-12-08T08:55:00.550Z,1.1
2022-12-08T09:00:00.608Z,1.4
2022-12-08T09:05:00.692Z,1.4
2022-12-08T09:10:02.188Z,1.6
2022-12-08T09:15:00.567Z,1.7
2022-12-08T09:20:00.575Z,1.8
2022-12-08T09:25:00.596Z,1.9
2022-12-08T09:30:00.593Z,1.9
2022-12-08T09:35:00.654Z,1.9
2022-12-08T09:40:00.608Z,2.1
2022-12-08T09:45:00.597Z,2.2
2022-12-08T09:50:00.659Z,2.4
2022-12-08T09:55:01.132Z,2.5
2022-12-08T10:00:01.395Z,2.7
2022-12-08T10:05:00.864Z,2.8
2022-12-08T10:10:00.673Z,2.9
2022-12-08T10:15:00.680Z,3.1
2022-12-08T10:20:00.665Z,3.1
2022-12-08T10:25:00.637Z,2.9
2022-12-08T10:30:00.640Z,2.9
2022-12-08T10:35:00.642Z,2.9
2022-12-08T10:40:00.771Z,2.9
2022-12-08T10:45:00.662Z,3
2022-12-08T10:50:00.660Z,3.1
2022-12-08T10:55:00.660Z,3.2
2022-12-08T11:00:00.675Z,3.2
2022-12-08T11:05:00.695Z,3.2
2022-12-08T11:10:00.673Z,3.2
2022-12-08T11:15:00.682Z,3.4
2022-12-08T11:20:00.719Z,3.1
2022-12-08T11:25:00.709Z,3.2
2022-12-08T11:30:00.702Z,3.2
2022-12-08T11:35:00.701Z,3.2
2022-12-08T11:40:00.707Z,3.3
2022-12-08T11:45:00.708Z,3.3
2022-12-08T11:50:00.719Z,3.5
2022-12-08T11:55:00.737Z,3.6
2022-12-08T12:00:00.717Z,3.4
2022-12-08T12:05:00.725Z,3.3
2022-12-08T12:10:00.738Z,3.4
2022-12-08T12:15:00.768Z,3.3
2022-12-08T12:20:00.737Z,3.2
2022-12-08T12:25:00.759Z,3.4
2022-12-08T12:30:00.752Z,3.4
2022-12-08T12:35:00.759Z,3.7
2022-12-08T12:40:00.774Z,3.7
2022-12-08T12:45:00.773Z,3.7
2022-12-08T12:50:00.776Z,3.8
2022-12-08T12:55:00.793Z,3.9
2022-12-08T13:00:00.781Z,3.8
2022-12-08T13:05:00.784Z,3.9
2022-12-08T13:10:00.799Z,3.9
2022-12-08T13:15:00.797Z,3.8
2022-12-08T13:20:00.789Z,3.6
2022-12-08T13:25:00.648Z,3.6
2022-12-08T13:30:00.509Z,3.5
2022-12-08T13:35:00.398Z,3.4
2022-12-08T13:40:00.405Z,3.5
2022-12-08T13:45:43.550Z,3.7
2022-12-08T13:56:24.890Z,4
2022-12-08T14:00:00.422Z,4.1
2022-12-08T14:05:26.306Z,3.9
2022-12-08T14:10:00.442Z,3.8
2022-12-08T14:15:03.701Z,3.6
2022-12-08T14:20:00.446Z,3.6
2022-12-08T14:25:00.443Z,3.6
2022-12-08T14:30:00.460Z,3.4
2022-12-08T14:35:00.464Z,3.4
2022-12-08T14:40:00.469Z,3.4
2022-12-08T14:45:00.471Z,3.4
2022-12-08T14:50:00.479Z,3.2
2022-12-08T14:55:00.490Z,3.1
2022-12-08T15:00:00.493Z,3
2022-12-08T15:05:00.560Z,2.9
2022-12-08T15:10:00.498Z,2.8
2022-12-08T15:15:00.506Z,2.6
2022-12-08T15:20:00.509Z,2.4
2022-12-08T15:25:00.512Z,2.1
2022-12-08T15:30:00.628Z,1.9
2022-12-08T15:35:00.563Z,1.7
2022-12-08T15:40:00.638Z,1.4
2022-12-08T15:45:00.637Z,1.4
2022-12-08T15:50:00.637Z,1.3
2022-12-08T15:55:00.696Z,1.2
2022-12-08T16:00:00.665Z,1.2
2022-12-08T16:05:40.142Z,1.1
2022-12-08T16:10:00.802Z,0.9
2022-12-08T16:20:00.660Z,0.9
2022-12-08T16:25:14.620Z,0.8
2022-12-08T16:30:00.618Z,0.6
2022-12-08T16:35:00.586Z,0.4
2022-12-08T16:40:00.665Z,0.1
2022-12-08T16:45:00.601Z,-0.1
2022-12-08T16:50:00.605Z,-0.1
2022-12-08T16:55:00.610Z,-0.2
2022-12-08T17:00:00.607Z,-0.3
2022-12-08T17:05:00.685Z,-0.4
2022-12-08T17:10:00.626Z,-0.5
2022-12-08T17:15:00.623Z,-0.6
2022-12-08T17:20:00.643Z,-0.6
2022-12-08T17:25:00.636Z,-0.7
2022-12-08T17:30:00.656Z,-0.8
2022-12-08T17:35:00.647Z,-0.8
2022-12-08T17:40:00.661Z,-0.9
2022-12-08T17:45:00.656Z,-1
2022-12-08T17:50:01.554Z,-1.2
2022-12-08T17:55:00.666Z,-1.4
2022-12-08T18:00:00.697Z,-1.5
2022-12-08T18:05:00.686Z,-1.5
2022-12-08T18:10:00.689Z,-1.6
2022-12-08T18:15:00.689Z,-1.6
2022-12-08T18:20:00.707Z,-1.6
2022-12-08T18:25:00.690Z,-1.6
2022-12-08T18:30:00.723Z,-1.6
2022-12-08T18:35:00.710Z,-1.8
2022-12-08T18:40:00.712Z,-1.8
2022-12-08T18:45:00.723Z,-1.8
2022-12-08T18:50:00.742Z,-1.8
2022-12-08T18:55:07.445Z,-1.9
2022-12-08T19:00:00.736Z,-2.1
2022-12-08T19:05:00.742Z,-2
2022-12-08T19:10:00.736Z,-2.1
2022-12-08T19:15:00.747Z,-2.1
2022-12-08T19:20:00.747Z,-2.1
2022-12-08T19:25:00.639Z,-2.1
2022-12-08T19:30:00.479Z,-2.1
2022-12-08T19:35:00.405Z,-2.1
2022-12-08T19:40:00.416Z,-2.1
2022-12-08T19:45:00.402Z,-2.2
2022-12-08T19:50:00.424Z,-2.3
2022-12-08T19:55:00.413Z,-2.4
2022-12-08T20:00:00.430Z,-2.3
2022-12-08T20:05:00.419Z,-2.3
2022-12-08T20:10:00.427Z,-2.2
2022-12-08T20:15:00.454Z,-2.2
2022-12-08T20:20:05.381Z,-2.1
2022-12-08T20:25:01.102Z,-1.9
2022-12-08T20:30:00.455Z,-1.9
2022-12-08T20:35:00.456Z,-1.8
2022-12-08T20:40:00.474Z,-1.7
2022-12-08T20:45:00.458Z,-1.6
2022-12-08T20:50:00.626Z,-1.5
2022-12-08T20:55:00.576Z,-1.4
2022-12-08T21:00:00.499Z,-1.4
2022-12-08T21:05:00.768Z,-1.4
2022-12-08T21:10:00.575Z,-1.3
2022-12-08T21:15:00.685Z,-1.3
2022-12-08T21:20:00.587Z,-1.1
2022-12-08T21:25:01.367Z,-1.1
2022-12-08T21:30:00.733Z,-1
2022-12-08T21:35:00.646Z,-0.9
2022-12-08T21:40:00.732Z,-0.9
2022-12-08T21:45:00.598Z,-0.9
2022-12-08T21:50:00.606Z,-0.9
2022-12-08T21:55:00.695Z,-0.9
2022-12-08T22:00:00.741Z,-0.9
2022-12-08T22:05:00.636Z,-0.9
2022-12-08T22:10:00.779Z,-0.9
2022-12-08T22:15:00.720Z,-0.8
2022-12-08T22:20:00.606Z,-0.7
2022-12-08T22:25:00.755Z,-0.6
2022-12-08T22:30:00.756Z,-0.6
2022-12-08T22:35:00.578Z,-0.6
2022-12-08T22:40:00.700Z,-0.5
2022-12-08T22:45:00.650Z,-0.5
2022-12-08T22:50:00.909Z,-0.6
2022-12-08T22:55:00.694Z,-0.6
2022-12-08T23:00:00.626Z,-0.8
2022-12-08T23:05:00.778Z,-0.8
2022-12-08T23:10:00.908Z,-0.8
2022-12-08T23:15:00.848Z,-0.8
2022-12-08T23:20:00.629Z,-0.8
2022-12-08T23:25:00.823Z,-0.8
2022-12-08T23:30:00.851Z,-0.8
2022-12-08T23:35:00.740Z,-0.8
2022-12-08T23:40:00.645Z,-0.8
2022-12-08T23:45:00.864Z,-0.8
2022-12-08T23:50:00.757Z,-0.8
2022-12-08T23:55:00.909Z,-0.8
